Detall de PIREP

Printer-friendly versionPDF version

[2014/12/23 09:01:00]
Flight IATA:CT1004
Pilot Number:042
Company ICAO:CAT
Aircraft Type:A320/E
PAX:100
Departing Airport: LEIB
Destination Airport: LOWI
Alternate Airport:EDMO
Online: VATSIM
Route:AGENA UM985 SUMIR UM726 BRENO
Flight Level:F360
No Slew and time accel
No pause
Crash detect
Detect pilot in Cockpit between each 30 and 45 minutes
09:01 Zero fuel Weight: 72900 Lbs, Fuel Weight: 41882 Lbs
09:01 VATSIM:LEIB 230830Z 00000KT 8000 FEW000 SCT010 09/09 Q1031 NOSIG
09:01 VATSIM:LOWI 230850Z VRB01KT CAVOK M02/M03 Q1027 R08/1///95 NOSIG
09:13 Parking Brakes off
09:18 Take-off
09:18 Take off Weight: 150669 Lbs
09:18 Wind: 222º @ 000 Knots Heading: 242º
09:18 POS N38º 52´ 18´´ E001º 22´ 14´´
09:18 Gear Up: 139 Knots
09:18 Flaps:3 at 139 Knots
09:19 Flaps:2 at 154 Knots
09:20 Flaps:0 at 199 Knots
09:33 Wind:216º@004 Knots Heading: 035º Ground Speed: 455 Knots Altitude 28838 ft
09:42 TOC
09:42 Fuel Weight: 37520 Lb
09:48 Wind:224º@009 Knots Heading: 036º Ground Speed: 454 Knots Altitude 36499 ft
10:03 Wind:192º@018 Knots Heading: 040º Ground Speed: 461 Knots Altitude 36525 ft
10:18 Wind:183º@016 Knots Heading: 056º Ground Speed: 454 Knots Altitude 36515 ft
10:33 Wind:225º@013 Knots Heading: 030º Ground Speed: 457 Knots Altitude 36479 ft
10:48 Wind:278º@034 Knots Heading: 052º Ground Speed: 465 Knots Altitude 36417 ft
10:56 TOD
10:56 Fuel Weight: 31277 Lb
11:03 Wind:291º@039 Knots Heading: 305º Ground Speed: 302 Knots Altitude 18572 ft
11:10 Flaps:1 at 207 Knots
11:13 Flaps:3 at 173 Knots
11:15 Flaps:4 at 158 Knots
11:15 Flaps:5 at 157 Knots
11:15 Gear Down: 157 Knots
11:18 Wind:317º@005 Knots Heading: 082º Ground Speed: 152 Knots Altitude 2595 ft
11:18 TouchDown:Rate -249 ft/min Speed: 130 Knots
11:19 VATSIM:LOWI 231050Z VRB01KT CAVOK 04/M01 Q1026 R08/1///95 NOSIG
11:19 Land
11:19 Wind:337º@001 Knots
11:19 Heading: 076º
11:19 Flight Duration: 02:01
11:19 Landing Weight: 139863 Lbs
11:19 POS N47º 15´ 39´´ E011º 21´ 06´´
11:21 Parking brakes on
11:21 Block to Block Duration: 02:08
11:21 Final Fuel: 30249 Lbls
11:21 Spent Fuel: 11633 Lbls
11:21 Flight Length: 823 NM
11:21 TOD Land Length: 103 NM

Exportar CSV

Powered by Drupal - Modified by Danger4k